Time;durP1;ratioP1;P1;durP2;ratioP2;P2;SDS_P1;SDS_P2;PMS_P1;PMS_P2;Temp;Humidity;BMP_temperature;BMP_pressure;BME280_temperature;BME280_humidity;BME280_pressure;Samples;Min_cycle;Max_cycle;Signal;HPM_P1;HPM_P2
2021/05/25 00:01:20;;;;;;;9.32;4.87;;;;;;;15.61;72.48;100110.09;5364634;26;20060;-80
2021/05/25 00:03:47;;;;;;;8.10;5.28;;;;;;;16.21;70.13;100115.31;5344383;26;20063;-80
2021/05/25 00:06:14;;;;;;;9.02;5.62;;;;;;;15.68;72.42;100100.25;5363312;26;20064;-80
2021/05/25 00:08:42;;;;;;;8.07;4.60;;;;;;;14.51;77.92;100113.25;5362935;26;20067;-80
2021/05/25 00:11:08;;;;;;;7.15;4.87;;;;;;;15.26;74.82;100110.31;5344411;26;20063;-81
2021/05/25 00:13:36;;;;;;;7.18;4.18;;;;;;;15.70;72.83;100119.56;5344610;26;20075;-80
2021/05/25 00:16:04;;;;;;;6.68;4.78;;;;;;;15.94;71.68;100131.19;5344391;26;20079;-81
2021/05/25 00:18:31;;;;;;;9.45;4.65;;;;;;;16.12;70.77;100129.75;5344537;26;20095;-81
2021/05/25 00:20:58;;;;;;;6.00;4.18;;;;;;;15.52;73.51;100106.88;5344035;26;20144;-81
2021/05/25 00:23:26;;;;;;;6.15;4.70;;;;;;;16.10;71.29;100107.72;5362755;26;20071;-81
2021/05/25 00:25:53;;;;;;;8.13;5.20;;;;;;;16.20;70.50;100140.06;5344524;26;20534;-81
2021/05/25 00:28:20;;;;;;;9.57;7.07;;;;;;;16.37;69.78;100143.03;5363019;26;20048;-80
2021/05/25 00:30:47;;;;;;;8.52;7.15;;;;;;;16.37;69.97;100132.44;5344239;26;20545;-81
2021/05/25 00:33:15;;;;;;;10.98;6.62;;;;;;;16.12;70.54;100138.56;5344462;26;20064;-81
2021/05/25 00:35:42;;;;;;;7.78;5.87;;;;;;;16.35;69.76;100148.41;5363085;26;20084;-81
2021/05/25 00:38:11;;;;;;;6.85;5.53;;;;;;;16.31;69.89;100156.50;5363069;26;20508;-81
2021/05/25 00:40:39;;;;;;;7.65;4.20;;;;;;;16.49;68.98;100153.22;5362811;26;20737;-81
2021/05/25 00:43:06;;;;;;;5.22;4.12;;;;;;;16.16;69.64;100163.16;5362987;26;20487;-80
2021/05/25 00:45:33;;;;;;;5.50;3.62;;;;;;;16.21;69.60;100160.38;5362846;26;20068;-81
2021/05/25 00:48:00;;;;;;;4.28;2.97;;;;;;;16.20;69.80;100163.94;5362514;26;20057;-80
2021/05/25 00:50:30;;;;;;;7.62;3.90;;;;;;;16.45;68.79;100161.34;5362689;26;20044;-80
2021/05/25 00:53:00;;;;;;;6.10;3.62;;;;;;;16.47;68.71;100162.13;5344462;26;20043;-81
2021/05/25 00:55:33;;;;;;;5.65;3.83;;;;;;;16.68;67.99;100155.25;5362670;26;20342;-81
2021/05/25 00:58:02;;;;;;;7.53;3.30;;;;;;;16.27;69.75;100150.44;5363543;26;20445;-80
2021/05/25 01:00:36;;;;;;;5.47;3.80;;;;;;;16.46;69.06;100142.72;5362623;26;20432;-81
2021/05/25 01:03:05;;;;;;;4.87;3.15;;;;;;;16.48;68.93;100142.69;5363174;26;20129;-80
2021/05/25 01:05:33;;;;;;;6.85;4.15;;;;;;;16.31;69.51;100144.09;5364904;26;20362;-80
2021/05/25 01:08:00;;;;;;;5.80;4.20;;;;;;;16.56;68.47;100128.22;5344062;26;20047;-80
2021/05/25 01:10:34;;;;;;;5.82;3.30;;;;;;;16.56;68.54;100125.59;5362880;26;20072;-80
2021/05/25 01:13:27;;;;;;;4.85;3.47;;;;;;;16.37;69.11;100129.78;5362720;26;20065;-80
2021/05/25 01:15:51;;;;;;;7.20;4.90;;;;;;;16.53;68.26;100128.34;5364406;26;20060;-80
2021/05/25 01:18:18;;;;;;;6.07;4.45;;;;;;;16.68;67.49;100123.44;5362966;26;20113;-80
2021/05/25 01:20:48;;;;;;;5.35;4.57;;;;;;;16.60;67.75;100125.47;5362896;26;20044;-80
2021/05/25 01:23:16;;;;;;;7.78;5.62;;;;;;;16.26;69.59;100131.91;5362702;26;21216;-80
2021/05/25 01:25:46;;;;;;;7.47;5.22;;;;;;;16.31;69.55;100141.44;5362666;26;20064;-80
2021/05/25 01:28:14;;;;;;;5.85;4.95;;;;;;;16.40;68.97;100132.31;5362836;26;20113;-80
2021/05/25 01:30:44;;;;;;;9.75;5.55;;;;;;;16.33;69.30;100141.41;5362573;26;20062;-80
2021/05/25 01:33:13;;;;;;;6.78;5.82;;;;;;;16.16;69.92;100151.69;5344179;26;20068;-80
2021/05/25 01:35:41;;;;;;;7.37;5.25;;;;;;;15.51;72.43;100152.81;5364278;26;20428;-81
2021/05/25 01:38:10;;;;;;;6.68;5.30;;;;;;;16.10;70.19;100143.03;5362598;26;20071;-80
2021/05/25 01:40:38;;;;;;;6.70;5.80;;;;;;;15.29;73.09;100140.19;5363743;26;20051;-81
2021/05/25 01:43:06;;;;;;;5.65;5.05;;;;;;;15.39;72.96;100143.47;5362694;26;20128;-80
2021/05/25 01:45:34;;;;;;;6.80;5.93;;;;;;;15.61;71.43;100152.47;5362653;26;20063;-81
2021/05/25 01:48:03;;;;;;;7.40;5.45;;;;;;;15.79;70.86;100137.81;5343953;26;20109;-80
2021/05/25 01:50:31;;;;;;;7.37;5.15;;;;;;;15.75;70.62;100136.19;5362752;26;20138;-80
2021/05/25 01:53:10;;;;;;;5.12;4.60;;;;;;;15.68;70.93;100139.97;5343826;26;20079;-80
2021/05/25 01:55:40;;;;;;;6.10;5.07;;;;;;;15.77;70.61;100133.53;5362594;26;20059;-81
2021/05/25 01:58:12;;;;;;;6.75;5.40;;;;;;;15.09;73.01;100129.31;5361762;26;20214;-81
2021/05/25 02:00:49;;;;;;;6.45;5.68;;;;;;;15.74;70.38;100131.84;5362089;26;20100;-79
2021/05/25 02:03:17;;;;;;;5.72;5.12;;;;;;;15.22;72.39;100120.12;5362634;26;20114;-81
2021/05/25 02:05:47;;;;;;;4.57;4.10;;;;;;;15.42;71.13;100120.41;5362623;26;20064;-81
2021/05/25 02:08:16;;;;;;;6.00;5.03;;;;;;;15.62;70.31;100113.66;5362638;26;20071;-80
2021/05/25 02:10:48;;;;;;;10.90;6.25;;;;;;;15.39;70.92;100117.00;5362576;26;20113;-80
2021/05/25 02:13:24;;;;;;;8.95;4.87;;;;;;;15.55;70.66;100115.59;5363214;26;20087;-80
2021/05/25 02:15:54;;;;;;;8.05;5.43;;;;;;;15.57;69.65;100123.50;5362456;26;20101;-80
2021/05/25 02:18:24;;;;;;;5.40;3.33;;;;;;;15.76;68.61;100131.75;5362536;26;20314;-80
2021/05/25 02:20:53;;;;;;;6.68;4.75;;;;;;;15.78;68.24;100125.50;5362566;26;20056;-80
2021/05/25 02:23:20;;;;;;;5.30;3.92;;;;;;;15.93;67.61;100112.69;5362482;26;20108;-80
2021/05/25 02:25:48;;;;;;;7.93;4.45;;;;;;;15.91;66.95;100118.03;5344009;26;20059;-80
2021/05/25 02:28:17;;;;;;;5.32;4.40;;;;;;;15.92;66.95;100127.72;5343838;26;20124;-81
2021/05/25 02:30:45;;;;;;;7.53;5.83;;;;;;;15.80;67.71;100126.34;5362048;26;20445;-80
2021/05/25 02:33:14;;;;;;;5.97;4.30;;;;;;;15.95;67.12;100138.22;5362498;26;20064;-81
2021/05/25 02:35:43;;;;;;;6.40;4.22;;;;;;;16.03;66.90;100138.84;5343872;26;20170;-80
2021/05/25 02:38:13;;;;;;;5.15;3.65;;;;;;;15.97;66.65;100136.41;5362944;26;20154;-80
2021/05/25 02:40:40;;;;;;;;;;;;;;;15.99;66.81;100131.03;5362647;26;20072;-81
2021/05/25 02:43:07;;;;;;;6.03;3.83;;;;;;;16.12;66.24;100129.75;5343989;26;19998;-80
2021/05/25 02:45:34;;;;;;;7.37;3.87;;;;;;;16.07;66.41;100121.94;5343489;26;20086;-80
2021/05/25 02:48:02;;;;;;;4.72;3.87;;;;;;;15.82;66.85;100127.12;5362162;26;20120;-80
2021/05/25 02:50:30;;;;;;;8.93;4.85;;;;;;;15.89;67.20;100119.88;5362395;26;20920;-81
2021/05/25 02:52:57;;;;;;;7.45;4.35;;;;;;;15.91;66.68;100136.56;5362096;26;20078;-80
2021/05/25 02:55:29;;;;;;;5.37;3.90;;;;;;;16.00;65.93;100143.38;5344635;26;20091;-80
2021/05/25 02:57:57;;;;;;;5.45;4.00;;;;;;;15.95;66.01;100143.53;5363988;26;20056;-80
2021/05/25 03:00:30;;;;;;;4.93;4.32;;;;;;;15.79;65.93;100148.44;5362221;26;20119;-80
2021/05/25 03:02:57;;;;;;;6.53;4.62;;;;;;;16.10;65.15;100156.28;5364063;26;20072;-80
2021/05/25 03:05:25;;;;;;;5.32;3.45;;;;;;;15.71;66.81;100155.75;5364252;26;20073;-80
2021/05/25 03:07:55;;;;;;;7.07;4.28;;;;;;;15.95;65.98;100154.12;5363880;26;20052;-80
2021/05/25 03:10:25;;;;;;;5.25;4.40;;;;;;;16.01;65.58;100164.53;5364282;26;20124;-79
2021/05/25 03:12:52;;;;;;;5.93;3.45;;;;;;;15.75;66.85;100167.13;5364925;26;20113;-80
2021/05/25 03:15:24;;;;;;;5.37;3.72;;;;;;;16.00;66.43;100172.50;5364965;26;20064;-80
2021/05/25 03:17:51;;;;;;;7.05;4.93;;;;;;;16.09;65.61;100182.84;5364916;26;20106;-80
2021/05/25 03:20:18;;;;;;;8.68;4.37;;;;;;;16.05;65.46;100182.06;5364971;26;20048;-81
2021/05/25 03:22:46;;;;;;;5.20;3.60;;;;;;;16.07;66.09;100180.22;5365321;26;20103;-79
2021/05/25 03:25:14;;;;;;;9.50;4.93;;;;;;;16.23;65.74;100179.72;5365077;26;20060;-80
2021/05/25 03:27:42;;;;;;;7.85;4.65;;;;;;;16.45;65.13;100171.94;5364923;26;20051;-80
2021/05/25 03:30:13;;;;;;;9.23;5.25;;;;;;;16.28;65.94;100175.16;5363019;26;20064;-80
2021/05/25 03:32:41;;;;;;;6.53;4.95;;;;;;;16.02;66.88;100173.34;5363530;26;20370;-80
2021/05/25 03:35:09;;;;;;;4.78;4.20;;;;;;;16.17;66.82;100164.03;5363163;26;20564;-82
2021/05/25 03:37:37;;;;;;;5.68;3.90;;;;;;;16.00;67.71;100169.84;5363306;26;20083;-81
2021/05/25 03:40:07;;;;;;;5.40;4.00;;;;;;;16.15;67.19;100173.81;5363063;26;20563;-80
2021/05/25 03:42:34;;;;;;;6.12;4.80;;;;;;;16.16;66.86;100173.78;5362768;26;20098;-80
2021/05/25 03:45:03;;;;;;;5.25;3.60;;;;;;;16.18;67.05;100176.34;5363129;26;20221;-81
2021/05/25 03:47:30;;;;;;;8.38;4.95;;;;;;;16.26;66.60;100176.97;5344387;26;20086;-80
2021/05/25 03:50:07;;;;;;;8.88;5.32;;;;;;;16.16;67.77;100183.50;5363027;26;20100;-81
2021/05/25 03:52:44;;;;;;;9.60;5.50;;;;;;;16.27;67.64;100203.47;5362796;26;20094;-80
2021/05/25 04:00:47;;;;;;;6.47;4.10;;;;;;;16.10;68.43;100219.87;5364567;26;20441;-80
2021/05/25 04:03:14;;;;;;;6.68;4.85;;;;;;;16.07;68.29;100227.06;5363466;26;20064;-81
2021/05/25 04:05:41;;;;;;;7.53;4.72;;;;;;;16.21;67.87;100234.59;5363145;26;20125;-81
2021/05/25 04:08:09;;;;;;;6.37;4.32;;;;;;;15.85;69.19;100237.44;5362924;26;20078;-81
2021/05/25 04:10:37;;;;;;;5.20;4.57;;;;;;;16.13;68.10;100243.63;5344446;26;20078;-80
2021/05/25 04:13:04;;;;;;;11.35;4.57;;;;;;;16.25;67.56;100252.12;5363020;26;20079;-81
2021/05/25 04:15:33;;;;;;;5.78;4.87;;;;;;;16.13;67.87;100259.53;5363233;26;20354;-80
2021/05/25 04:18:02;;;;;;;5.82;4.22;;;;;;;16.29;67.70;100246.66;5363113;26;20169;-81
2021/05/25 04:20:29;;;;;;;5.65;4.35;;;;;;;16.35;67.48;100253.56;5363010;26;20455;-80
2021/05/25 04:22:57;;;;;;;5.28;4.00;;;;;;;16.04;68.66;100254.53;5344102;26;20126;-81
2021/05/25 04:25:25;;;;;;;6.85;4.10;;;;;;;16.42;67.47;100244.50;5362950;26;20079;-81
2021/05/25 04:27:53;;;;;;;6.50;3.92;;;;;;;16.36;67.46;100257.97;5362883;26;20074;-80
2021/05/25 04:30:20;;;;;;;8.00;4.70;;;;;;;16.35;67.77;100250.91;5362638;26;20371;-80
2021/05/25 04:32:48;;;;;;;9.15;4.43;;;;;;;16.38;67.87;100256.12;5362900;26;20114;-80
2021/05/25 04:35:14;;;;;;;7.53;5.00;;;;;;;16.46;67.87;100251.44;5362451;26;20083;-80
2021/05/25 04:37:41;;;;;;;10.05;5.07;;;;;;;16.47;67.99;100253.19;5363234;26;20070;-81
2021/05/25 04:40:09;;;;;;;6.65;4.35;;;;;;;16.41;68.25;100252.50;5363305;26;20052;-81
2021/05/25 04:42:36;;;;;;;7.43;4.65;;;;;;;16.68;67.51;100250.75;5362659;26;20084;-80
2021/05/25 04:45:06;;;;;;;5.25;4.28;;;;;;;16.68;67.41;100254.28;5364816;26;20118;-80
2021/05/25 04:47:33;;;;;;;8.65;4.80;;;;;;;16.72;66.98;100261.19;5364712;26;20052;-80
2021/05/25 04:50:00;;;;;;;7.40;5.10;;;;;;;16.91;66.49;100265.91;5364537;26;20075;-81
2021/05/25 04:52:27;;;;;;;6.75;4.70;;;;;;;16.73;66.73;100257.63;5364436;26;20059;-81
2021/05/25 04:54:55;;;;;;;6.25;5.03;;;;;;;16.95;66.19;100264.91;5364893;26;20067;-80
2021/05/25 04:57:23;;;;;;;5.05;4.00;;;;;;;16.90;65.96;100264.19;5364523;26;20326;-80
2021/05/25 04:59:50;;;;;;;6.22;4.53;;;;;;;16.86;66.34;100265.22;5344405;26;20136;-80
2021/05/25 05:02:20;;;;;;;7.32;3.95;;;;;;;16.95;66.18;100279.03;5362774;26;20123;-81
2021/05/25 05:04:48;;;;;;;6.97;4.62;;;;;;;16.69;66.52;100279.88;5344932;26;20105;-81
2021/05/25 05:07:15;;;;;;;8.35;4.82;;;;;;;17.30;64.89;100284.06;5362593;26;20115;-81
2021/05/25 05:09:42;;;;;;;5.22;4.40;;;;;;;17.22;65.15;100289.62;5362611;26;20103;-81
2021/05/25 05:12:09;;;;;;;6.65;4.65;;;;;;;16.72;66.58;100286.88;5362654;26;20119;-82
2021/05/25 05:14:38;;;;;;;8.13;4.57;;;;;;;17.25;65.04;100285.06;5344409;26;20076;-82
2021/05/25 05:17:05;;;;;;;7.47;4.72;;;;;;;17.33;64.31;100294.56;5362742;26;20120;-80
2021/05/25 05:19:57;;;;;;;9.75;5.12;;;;;;;17.15;65.10;100306.69;5362986;26;20997;-80
2021/05/25 05:23:07;;;;;;;6.37;4.75;;;;;;;17.28;64.79;100304.47;5346023;26;20111;-81
2021/05/25 05:25:54;;;;;;;7.72;4.50;;;;;;;17.35;65.28;100306.84;5358641;26;20064;-80
2021/05/25 05:28:21;;;;;;;8.30;4.53;;;;;;;17.38;65.22;100301.47;5344257;26;20143;-80
2021/05/25 05:30:48;;;;;;;5.87;4.90;;;;;;;17.74;64.12;100302.84;5364335;26;20128;-80
2021/05/25 05:33:15;;;;;;;6.43;4.28;;;;;;;17.60;63.95;100306.00;5363525;26;20458;-81
2021/05/25 05:36:41;;;;;;;;;;;;;;;;;;;;;
2021/05/25 05:39:45;;;;;;;6.35;3.50;;;;;;;17.61;64.95;100310.38;5351426;26;20079;-80
2021/05/25 05:43:30;;;;;;;;;;;;;;;;;;;;;
2021/05/25 05:46:45;;;;;;;;;;;;;;;;;;;;;
2021/05/25 05:49:44;;;;;;;11.10;4.72;;;;;;;17.12;65.75;100330.66;5184203;27;20614;-83
2021/05/25 05:53:12;;;;;;;7.35;4.10;;;;;;;17.69;64.04;100332.22;5104343;28;20203;-83
2021/05/25 05:56:02;;;;;;;5.90;4.22;;;;;;;17.78;63.15;100342.53;5101611;28;20064;-83
2021/05/25 05:59:25;;;;;;;9.65;4.20;;;;;;;17.72;63.45;100345.41;5099348;28;20084;-81
2021/05/25 06:02:48;;;;;;;9.00;4.45;;;;;;;17.60;64.26;100343.19;5100468;28;20186;-81
2021/05/25 06:10:05;;;;;;;8.63;5.90;;;;;;;17.87;63.59;100344.88;5079946;28;20504;-82
2021/05/25 06:13:50;;;;;;;5.97;3.78;;;;;;;17.55;64.68;100358.41;5060691;28;20068;-81
2021/05/25 06:17:11;;;;;;;8.20;4.03;;;;;;;17.87;63.11;100347.53;5040940;28;20081;-82
2021/05/25 06:19:51;;;;;;;23.08;15.25;;;;;;;17.77;63.66;100354.09;5052250;28;20185;-83
2021/05/25 06:34:58;;;;;;;;;;;;;;;;;;;;;
2021/05/25 06:42:07;;;;;;;6.82;4.87;;;;;;;17.61;65.50;100366.16;5064009;28;20064;-83
2021/05/25 07:15:22;;;;;;;;;;;;;;;;;;;;;
2021/05/25 07:30:08;;;;;;;5.68;2.80;;;;;;;18.93;61.94;100410.00;5086927;28;20088;-82
2021/05/25 07:44:42;;;;;;;5.40;2.45;;;;;;;19.44;57.70;100427.44;5154334;27;20160;-83
2021/05/25 07:48:19;;;;;;;6.00;2.00;;;;;;;18.81;59.35;100437.13;5213110;27;20086;-83
2021/05/25 07:51:55;;;;;;;4.07;2.25;;;;;;;18.98;57.79;100439.12;5180566;27;20202;-82
2021/05/25 08:03:54;;;;;;;1.80;1.30;;;;;;;18.41;58.27;100459.00;5131080;28;20411;-81
2021/05/25 08:10:05;;;;;;;;;;;;;;;;;;;;;
2021/05/25 08:26:55;;;;;;;;;;;;;;;;;;;;;
2021/05/25 08:34:02;;;;;;;2.75;1.35;;;;;;;17.08;60.94;100517.53;5104531;28;20091;-81
2021/05/25 08:37:10;;;;;;;3.65;1.10;;;;;;;16.69;61.29;100536.34;5130506;27;20187;-82
2021/05/25 08:52:08;;;;;;;5.75;1.65;;;;;;;16.28;58.71;100562.22;4964138;28;20481;-81
2021/05/25 08:55:47;;;;;;;;;;;;;;;;;;;;;
2021/05/25 09:02:56;;;;;;;;;;;;;;;;;;;;;
2021/05/25 09:05:37;;;;;;;3.08;1.12;;;;;;;15.84;54.15;100581.00;5022964;28;20077;-82
2021/05/25 09:08:27;;;;;;;4.28;1.02;;;;;;;16.06;53.83;100588.41;5079634;28;20404;-81
2021/05/25 09:11:47;;;;;;;3.58;1.10;;;;;;;16.02;54.93;100589.41;5219631;27;20088;-81
2021/05/25 09:14:56;;;;;;;4.00;1.65;;;;;;;16.37;51.49;100599.09;5292808;27;20061;-83
2021/05/25 09:22:32;;;;;;;4.80;1.40;;;;;;;16.38;52.70;100597.31;5223619;27;21130;-83
2021/05/25 09:29:55;;;;;;;;;;;;;;;;;;;;;
2021/05/25 09:33:17;;;;;;;4.05;0.98;;;;;;;15.88;51.32;100597.69;5109090;27;20524;-83
2021/05/25 09:36:25;;;;;;;3.97;1.40;;;;;;;15.53;52.22;100598.47;5146636;27;20051;-82
2021/05/25 09:42:43;;;;;;;8.82;2.37;;;;;;;16.29;50.17;100609.03;5142389;27;20550;-81
2021/05/25 09:45:25;;;;;;;8.50;2.53;;;;;;;16.17;50.97;100610.22;5162660;27;20094;-81
2021/05/25 09:48:21;;;;;;;6.43;2.72;;;;;;;16.68;52.47;100606.25;5174343;27;20450;-82
2021/05/25 09:50:56;;;;;;;6.85;2.53;;;;;;;17.07;49.98;100611.38;5188569;27;20071;-81
2021/05/25 09:53:31;;;;;;;2.72;1.23;;;;;;;16.73;50.04;100607.81;5198358;27;20062;-82
2021/05/25 09:56:07;;;;;;;3.10;1.50;;;;;;;16.30;51.29;100611.66;5289459;26;20044;-82
2021/05/25 09:58:53;;;;;;;3.90;1.02;;;;;;;16.97;50.96;100613.37;5343688;26;20100;-82
2021/05/25 10:01:52;;;;;;;1.58;0.80;;;;;;;16.82;50.21;100614.69;5340427;26;20121;-82
2021/05/25 10:08:20;;;;;;;5.07;1.00;;;;;;;17.59;49.68;100615.06;5290552;26;20057;-82
2021/05/25 10:10:54;;;;;;;2.90;0.90;;;;;;;17.59;48.80;100613.31;5340781;26;20472;-82
2021/05/25 10:13:24;;;;;;;;;;;;;;;16.88;49.80;100614.53;5342529;26;20078;-80
2021/05/25 10:16:01;;;;;;;4.90;0.82;;;;;;;16.70;50.56;100623.84;5343775;26;19972;-81
2021/05/25 10:21:13;;;;;;;5.55;1.92;;;;;;;17.00;50.85;100630.13;5345330;26;20068;-80
2021/05/25 10:23:57;;;;;;;1.37;0.82;;;;;;;16.91;50.47;100643.66;5345489;26;20654;-82
2021/05/25 10:26:35;;;;;;;9.68;3.42;;;;;;;16.48;51.14;100636.81;5345994;26;20061;-81
2021/05/25 10:29:21;;;;;;;4.87;2.15;;;;;;;16.62;51.21;100643.53;5342541;26;20060;-82
2021/05/25 10:32:01;;;;;;;2.30;1.15;;;;;;;16.99;51.19;100652.25;5341359;26;20056;-81
2021/05/25 10:34:48;;;;;;;5.97;1.92;;;;;;;16.64;52.27;100652.31;5340944;26;20061;-81
2021/05/25 10:37:55;;;;;;;11.55;4.75;;;;;;;15.75;52.92;100654.53;5340558;26;20064;-81
2021/05/25 10:40:58;;;;;;;6.05;2.60;;;;;;;15.97;52.72;100647.84;5340581;26;20373;-81
2021/05/25 10:44:09;;;;;;;4.70;2.15;;;;;;;16.34;53.27;100641.59;5341078;26;20056;-82
2021/05/25 10:47:42;;;;;;;4.47;2.85;;;;;;;16.46;52.32;100632.47;5337844;26;20060;-82
2021/05/25 10:50:33;;;;;;;2.47;1.40;;;;;;;16.29;52.31;100636.41;5340552;26;20082;-81
2021/05/25 10:53:05;;;;;;;8.30;1.90;;;;;;;16.32;52.86;100644.31;5340285;26;20110;-81
2021/05/25 10:55:44;;;;;;;1.42;0.77;;;;;;;15.90;53.46;100636.50;5340035;26;20052;-81
2021/05/25 10:58:17;;;;;;;2.03;1.10;;;;;;;15.45;55.01;100646.34;5341649;26;20410;-82
2021/05/25 11:00:45;;;;;;;4.32;1.73;;;;;;;15.94;53.79;100645.22;5343067;26;20060;-79
2021/05/25 11:03:12;;;;;;;4.55;1.67;;;;;;;15.65;54.68;100643.25;5345306;26;20087;-79
2021/05/25 11:05:47;;;;;;;3.28;1.52;;;;;;;15.87;53.66;100649.81;5343583;26;20462;-79
2021/05/25 11:08:15;;;;;;;3.10;1.20;;;;;;;16.09;53.05;100644.88;5344631;26;20072;-79
2021/05/25 11:10:42;;;;;;;3.15;1.52;;;;;;;15.80;54.07;100648.22;5343358;26;20025;-79
2021/05/25 11:13:15;;;;;;;1.25;0.62;;;;;;;16.05;53.67;100631.72;5343066;26;20052;-79
2021/05/25 11:16:06;;;;;;;2.05;0.80;;;;;;;15.96;52.24;100624.00;5351384;26;20062;-79
2021/05/25 11:18:47;;;;;;;2.87;0.80;;;;;;;16.07;53.26;100638.75;5365791;26;20071;-77
2021/05/25 11:24:36;;;;;;;2.85;0.80;;;;;;;16.36;50.72;100642.44;5366241;26;20531;-79
2021/05/25 11:27:12;;;;;;;2.72;0.80;;;;;;;16.51;50.76;100641.19;5365406;26;20043;-80
2021/05/25 11:29:48;;;;;;;2.03;0.88;;;;;;;16.42;51.32;100652.91;5364206;26;20082;-80
2021/05/25 11:32:19;;;;;;;3.28;1.30;;;;;;;16.46;51.17;100654.53;5365498;26;20060;-82
2021/05/25 11:34:57;;;;;;;2.95;1.30;;;;;;;16.48;51.04;100646.56;5364824;26;20063;-82
2021/05/25 11:37:25;;;;;;;2.25;0.90;;;;;;;16.35;51.40;100649.53;5345407;26;20024;-82
2021/05/25 11:39:54;;;;;;;1.33;0.77;;;;;;;16.17;51.25;100647.31;5364925;26;20052;-82
2021/05/25 11:42:26;;;;;;;2.87;1.25;;;;;;;16.24;50.73;100643.63;5348068;26;20064;-82
2021/05/25 11:44:54;;;;;;;4.00;0.88;;;;;;;16.56;49.97;100649.88;5367506;26;20074;-82
2021/05/25 11:47:22;;;;;;;5.15;0.80;;;;;;;16.71;50.65;100656.56;5366588;26;20058;-80
2021/05/25 11:49:50;;;;;;;2.87;0.70;;;;;;;17.24;52.88;100647.13;5367449;26;20056;-81
2021/05/25 11:52:34;;;;;;;2.55;0.75;;;;;;;17.31;49.86;100646.94;5367497;26;20053;-80
2021/05/25 11:55:08;;;;;;;1.35;0.70;;;;;;;17.96;47.36;100644.06;5370317;26;20012;-81
2021/05/25 11:58:23;;;;;;;5.05;1.00;;;;;;;17.40;48.49;100642.22;5371242;26;20048;-81
2021/05/25 12:01:27;;;;;;;4.43;1.37;;;;;;;17.30;48.37;100632.78;5352176;26;20072;-80
2021/05/25 12:04:07;;;;;;;1.35;0.50;;;;;;;17.46;47.18;100639.38;5352634;26;20111;-81
2021/05/25 12:06:51;;;;;;;2.47;1.12;;;;;;;17.91;46.62;100640.66;5355479;26;20029;-80
2021/05/25 12:09:20;;;;;;;4.47;0.70;;;;;;;17.71;47.04;100644.81;5352772;26;20055;-81
2021/05/25 12:12:00;;;;;;;6.22;1.90;;;;;;;16.98;48.73;100642.56;5353160;26;20068;-80
2021/05/25 12:14:47;;;;;;;2.97;1.10;;;;;;;17.74;47.14;100642.97;5370941;26;20064;-81
2021/05/25 12:17:29;;;;;;;3.28;1.17;;;;;;;18.03;47.19;100642.06;5350727;26;20110;-81
2021/05/25 12:20:24;;;;;;;3.67;1.00;;;;;;;17.55;46.30;100642.66;5350932;26;20056;-82
2021/05/25 12:23:46;;;;;;;1.77;1.00;;;;;;;18.02;45.30;100627.03;5354937;26;20072;-82
2021/05/25 12:26:27;;;;;;;8.70;2.92;;;;;;;17.43;44.94;100630.63;5350459;26;20064;-82
2021/05/25 12:29:08;;;;;;;4.68;1.10;;;;;;;17.82;44.77;100636.50;5346767;26;20073;-82
2021/05/25 12:32:09;;;;;;;3.85;0.88;;;;;;;17.44;45.86;100630.59;5346787;26;20051;-82
2021/05/25 12:34:52;;;;;;;2.30;0.50;;;;;;;17.56;44.72;100631.13;5329123;26;20057;-82
2021/05/25 12:37:25;;;;;;;2.72;0.95;;;;;;;17.95;43.87;100636.13;5366716;26;20433;-82
2021/05/25 12:40:02;;;;;;;3.80;1.12;;;;;;;17.91;44.27;100630.03;5348567;26;20064;-82
2021/05/25 12:43:05;;;;;;;3.00;0.88;;;;;;;17.44;44.59;100638.56;5349568;26;20057;-82
2021/05/25 12:45:32;;;;;;;1.30;0.52;;;;;;;17.48;45.01;100639.34;5348755;26;20060;-83
2021/05/25 12:48:03;;;;;;;4.03;1.27;;;;;;;17.26;44.60;100639.09;5347883;26;20078;-82
2021/05/25 12:50:37;;;;;;;2.47;0.88;;;;;;;17.48;45.47;100655.28;5348299;26;20079;-82
2021/05/25 12:53:24;;;;;;;2.58;0.70;;;;;;;16.78;45.92;100658.16;5362832;26;20068;-81
2021/05/25 12:55:54;;;;;;;6.05;1.37;;;;;;;16.87;44.77;100649.94;5347706;26;20131;-82
2021/05/25 12:58:52;;;;;;;6.80;1.98;;;;;;;17.24;44.93;100667.50;5365700;26;20064;-82
2021/05/25 13:01:52;;;;;;;2.40;1.08;;;;;;;17.79;44.35;100663.19;5348944;26;20086;-81
2021/05/25 13:05:11;;;;;;;5.93;1.90;;;;;;;17.30;45.58;100672.62;5336680;26;20123;-82
2021/05/25 13:08:19;;;;;;;5.68;1.62;;;;;;;17.59;43.56;100669.09;5365668;26;20116;-82
2021/05/25 13:11:16;;;;;;;2.33;0.88;;;;;;;17.29;44.91;100668.22;5334496;26;20422;-83
2021/05/25 13:14:01;;;;;;;7.95;1.95;;;;;;;17.42;45.61;100669.59;5344107;26;20049;-81
2021/05/25 13:16:30;;;;;;;1.30;0.95;;;;;;;17.46;45.16;100665.94;5344917;26;20056;-81
2021/05/25 13:19:06;;;;;;;2.58;1.10;;;;;;;17.57;46.31;100664.75;5346234;26;20048;-82
2021/05/25 13:21:42;;;;;;;4.53;1.00;;;;;;;17.61;46.67;100669.91;5364524;26;20059;-82
2021/05/25 13:24:16;;;;;;;3.70;1.10;;;;;;;17.66;46.39;100683.94;5346406;26;20462;-82
2021/05/25 13:26:43;;;;;;;2.95;1.37;;;;;;;17.75;46.65;100689.88;5346165;26;20654;-81
2021/05/25 13:29:16;;;;;;;5.62;1.92;;;;;;;18.22;45.74;100682.22;5366054;26;20064;-82
2021/05/25 13:32:02;;;;;;;5.47;1.55;;;;;;;18.27;45.57;100694.47;5365801;26;20731;-82
2021/05/25 13:34:41;;;;;;;4.20;1.35;;;;;;;18.38;45.41;100702.06;5347329;26;20080;-81
2021/05/25 13:37:08;;;;;;;3.90;1.00;;;;;;;18.68;45.67;100702.84;5348378;26;20074;-82
2021/05/25 13:39:49;;;;;;;4.93;1.83;;;;;;;18.36;44.57;100701.25;5347808;26;20072;-82
2021/05/25 13:42:26;;;;;;;3.75;1.60;;;;;;;18.24;44.36;100697.22;5348518;26;20063;-82
2021/05/25 13:45:00;;;;;;;3.62;1.12;;;;;;;18.33;41.03;100688.06;5348928;26;20115;-81
2021/05/25 13:47:37;;;;;;;1.37;0.50;;;;;;;18.11;38.83;100694.06;5347106;26;20060;-81
2021/05/25 13:50:33;;;;;;;3.08;0.80;;;;;;;17.71;38.81;100687.31;5346792;26;20080;-82
2021/05/25 13:53:46;;;;;;;1.65;0.50;;;;;;;17.89;37.80;100682.41;5352118;26;20791;-82
2021/05/25 13:58:43;;;;;;;3.35;0.50;;;;;;;17.91;39.71;100694.72;5367428;26;20064;-82
2021/05/25 14:01:59;;;;;;;1.35;1.00;;;;;;;17.68;38.70;100694.53;5366620;26;20075;-82
2021/05/25 14:04:34;;;;;;;3.80;1.17;;;;;;;17.37;36.97;100702.53;5322153;26;20166;-81
2021/05/25 14:07:19;;;;;;;5.60;2.65;;;;;;;17.74;37.97;100702.31;5348644;26;20051;-81
2021/05/25 14:10:20;;;;;;;3.37;1.15;;;;;;;17.49;39.59;100708.34;5347060;26;20323;-82
2021/05/25 14:13:06;;;;;;;2.15;0.88;;;;;;;17.63;39.48;100693.78;5351407;26;20073;-79
2021/05/25 14:15:37;;;;;;;2.55;1.05;;;;;;;17.32;41.28;100705.31;5347749;26;20072;-79
2021/05/25 14:18:08;;;;;;;0.77;0.60;;;;;;;17.54;40.15;100702.03;5347860;26;20056;-80
2021/05/25 14:20:41;;;;;;;1.85;0.60;;;;;;;17.55;41.11;100717.06;5366582;26;20937;-80
2021/05/25 14:23:08;;;;;;;2.37;0.73;;;;;;;17.18;40.16;100712.81;5345591;26;20063;-81
2021/05/25 14:25:44;;;;;;;3.10;1.40;;;;;;;17.21;40.18;100726.00;5346682;26;20072;-81
2021/05/25 14:28:14;;;;;;;3.12;1.02;;;;;;;17.07;40.25;100726.38;5346002;26;20051;-81
2021/05/25 14:30:42;;;;;;;3.53;1.48;;;;;;;17.08;38.73;100722.78;5345909;26;20099;-81
2021/05/25 14:33:12;;;;;;;3.85;0.90;;;;;;;17.38;38.33;100736.13;5364142;26;20071;-80
2021/05/25 14:35:39;;;;;;;3.80;1.23;;;;;;;16.92;38.98;100740.94;5364731;26;20060;-79
2021/05/25 14:38:06;;;;;;;2.90;1.05;;;;;;;16.77;39.04;100746.66;5363332;26;20720;-80
2021/05/25 14:40:33;;;;;;;0.95;0.68;;;;;;;16.46;38.80;100749.16;5363403;26;20107;-79
2021/05/25 14:43:00;;;;;;;1.27;0.70;;;;;;;16.33;38.49;100748.59;5363452;26;20111;-78
2021/05/25 14:45:27;;;;;;;4.80;1.60;;;;;;;16.24;39.45;100743.50;5365896;26;20068;-79
2021/05/25 14:47:55;;;;;;;3.40;1.23;;;;;;;16.19;39.95;100743.59;5363416;26;20052;-78
2021/05/25 14:50:26;;;;;;;5.03;1.65;;;;;;;15.72;39.39;100742.91;5364857;26;20081;-78
2021/05/25 14:52:59;;;;;;;5.03;1.30;;;;;;;15.97;38.73;100732.63;5323135;26;20120;-78
2021/05/25 14:55:29;;;;;;;2.80;1.10;;;;;;;15.78;38.39;100732.16;5341625;26;20069;-78
2021/05/25 14:57:57;;;;;;;2.05;1.00;;;;;;;15.89;38.37;100731.94;5343336;26;20097;-78
2021/05/25 15:00:26;;;;;;;3.85;1.52;;;;;;;16.23;38.66;100729.34;5323773;26;20049;-78
2021/05/25 15:06:02;;;;;;;3.28;1.30;;;;;;;16.33;38.31;100732.69;5343703;26;20358;-78
2021/05/25 15:08:17;;;;;;;1.95;0.65;;;;;;;16.14;37.77;100742.84;5341355;26;20087;-78